Time;durP1;ratioP1;P1;durP2;ratioP2;P2;SDS_P1;SDS_P2;PMS_P1;PMS_P2;Temp;Humidity;BMP_temperature;BMP_pressure;BME280_temperature;BME280_humidity;BME280_pressure;Samples;Min_cycle;Max_cycle;Signal;HPM_P1;HPM_P2
2023/07/04 00:00:40;;;;;;;;;;;18.50;99.90;;;;;;5075116;28;20481;-68
2023/07/04 00:03:07;;;;;;;;;;;18.50;99.90;;;;;;5074899;28;20318;-68
2023/07/04 00:05:33;;;;;;;;;;;18.40;99.90;;;;;;5075105;28;20042;-68
2023/07/04 00:08:00;;;;;;;;;;;18.50;99.90;;;;;;5074917;28;20001;-68
2023/07/04 00:10:28;;;;;;;;;;;18.50;99.90;;;;;;5074825;28;20001;-67
2023/07/04 00:12:55;;;;;;;;;;;18.40;99.90;;;;;;5074742;28;20013;-68
2023/07/04 00:15:22;;;;;;;;;;;18.50;99.90;;;;;;5074772;28;20044;-68
2023/07/04 00:17:50;;;;;;;;;;;18.50;99.90;;;;;;5074509;28;20441;-68
2023/07/04 00:20:16;;;;;;;;;;;18.40;99.90;;;;;;5074425;28;20064;-69
2023/07/04 00:22:44;;;;;;;;;;;18.40;99.90;;;;;;5074528;28;20015;-68
2023/07/04 00:25:11;;;;;;;;;;;18.40;99.90;;;;;;5074485;28;20016;-68
2023/07/04 00:27:40;;;;;;;;;;;18.30;99.90;;;;;;5074307;28;20002;-69
2023/07/04 00:30:08;;;;;;;;;;;18.30;99.90;;;;;;5074688;28;20012;-69
2023/07/04 00:32:35;;;;;;;;;;;18.40;99.90;;;;;;5074357;28;20020;-68
2023/07/04 00:35:02;;;;;;;;;;;18.40;99.90;;;;;;5074299;28;20088;-69
2023/07/04 00:37:29;;;;;;;;;;;18.30;99.90;;;;;;5074320;28;20331;-69
2023/07/04 00:39:56;;;;;;;;;;;18.40;99.90;;;;;;5076813;28;20084;-69
2023/07/04 00:42:24;;;;;;;;;;;18.40;99.90;;;;;;5077895;28;20005;-68
2023/07/04 00:44:55;;;;;;;;;;;18.40;99.90;;;;;;5078318;28;20064;-69
2023/07/04 00:47:32;;;;;;;;;;;18.40;99.90;;;;;;5077683;28;20002;-68
2023/07/04 00:50:07;;;;;;;;;;;18.40;99.90;;;;;;5078083;28;20315;-69
2023/07/04 00:52:36;;;;;;;;;;;18.30;99.90;;;;;;5077989;28;20074;-68
2023/07/04 00:55:05;;;;;;;;;;;18.30;99.90;;;;;;5078052;28;20011;-69
2023/07/04 00:57:32;;;;;;;;;;;18.40;99.90;;;;;;5077881;28;20098;-69
2023/07/04 01:00:11;;;;;;;;;;;18.40;99.90;;;;;;5077579;28;20001;-69
2023/07/04 01:02:38;;;;;;;;;;;18.40;99.90;;;;;;5077526;28;20008;-68
2023/07/04 01:05:05;;;;;;;;;;;18.40;99.90;;;;;;5077837;28;20001;-68
2023/07/04 01:07:32;;;;;;;;;;;18.40;99.90;;;;;;5077783;28;20016;-69
2023/07/04 01:10:03;;;;;;;;;;;18.50;99.90;;;;;;5077940;28;20036;-68
2023/07/04 01:12:30;;;;;;;;;;;18.50;99.90;;;;;;5077370;28;20061;-69
2023/07/04 01:14:57;;;;;;;;;;;18.40;99.90;;;;;;5077453;28;20048;-69
2023/07/04 01:17:25;;;;;;;;;;;18.40;99.90;;;;;;5077677;28;20091;-68
2023/07/04 01:19:52;;;;;;;;;;;18.40;99.90;;;;;;5076992;28;20010;-69
2023/07/04 01:22:24;;;;;;;;;;;18.40;99.90;;;;;;5077613;28;20028;-69
2023/07/04 01:25:01;;;;;;;;;;;18.40;99.90;;;;;;5077531;28;19997;-68
2023/07/04 01:27:30;;;;;;;;;;;18.40;99.90;;;;;;5077457;28;19997;-69
2023/07/04 01:30:00;;;;;;;;;;;18.40;99.90;;;;;;5077319;28;20055;-69
2023/07/04 01:32:28;;;;;;;;;;;18.40;99.90;;;;;;5077386;28;20013;-69
2023/07/04 01:34:58;;;;;;;;;;;18.40;99.90;;;;;;5077535;28;20060;-68
2023/07/04 01:37:25;;;;;;;;;;;18.40;99.90;;;;;;5077074;28;20029;-69
2023/07/04 01:39:52;;;;;;;;;;;18.50;99.90;;;;;;5077323;28;20005;-68
2023/07/04 01:42:19;;;;;;;;;;;18.50;99.90;;;;;;5077125;28;20012;-68
2023/07/04 01:44:48;;;;;;;;;;;18.50;99.90;;;;;;5076744;28;20041;-68
2023/07/04 01:47:18;;;;;;;;;;;18.60;99.90;;;;;;5076979;28;20005;-68
2023/07/04 01:49:44;;;;;;;;;;;18.60;99.90;;;;;;5076563;28;20058;-69
2023/07/04 01:52:11;;;;;;;;;;;18.60;99.90;;;;;;5076948;28;20021;-69
2023/07/04 01:54:38;;;;;;;;;;;18.60;99.90;;;;;;5077113;28;20108;-69
2023/07/04 01:57:10;;;;;;;;;;;18.60;99.90;;;;;;5077044;28;20027;-69
2023/07/04 01:59:37;;;;;;;;;;;18.60;99.90;;;;;;5077020;28;20457;-69
2023/07/04 02:02:07;;;;;;;;;;;18.60;99.90;;;;;;5076548;28;20087;-69
2023/07/04 02:04:34;;;;;;;;;;;18.60;99.90;;;;;;5076624;28;20088;-69
2023/07/04 02:07:00;;;;;;;;;;;18.60;99.90;;;;;;5076961;28;20100;-69
2023/07/04 02:09:27;;;;;;;;;;;18.50;99.90;;;;;;5076504;28;20001;-68
2023/07/04 02:11:54;;;;;;;;;;;18.60;99.90;;;;;;5076313;28;20001;-68
2023/07/04 02:14:20;;;;;;;;;;;18.60;99.90;;;;;;5076532;28;20027;-69
2023/07/04 02:16:49;;;;;;;;;;;18.50;99.90;;;;;;5076417;28;20325;-68
2023/07/04 02:19:17;;;;;;;;;;;18.50;99.90;;;;;;5075976;28;20104;-68
2023/07/04 02:21:44;;;;;;;;;;;18.50;99.90;;;;;;5076291;28;20001;-68
2023/07/04 02:24:11;;;;;;;;;;;18.50;99.90;;;;;;5076541;28;20532;-69
2023/07/04 02:26:39;;;;;;;;;;;18.50;99.90;;;;;;5076316;28;20001;-69
2023/07/04 02:29:05;;;;;;;;;;;18.50;99.90;;;;;;5076308;28;20001;-69
2023/07/04 02:31:32;;;;;;;;;;;18.50;99.90;;;;;;5076038;28;20001;-68
2023/07/04 02:33:59;;;;;;;;;;;18.40;99.90;;;;;;5076217;28;20013;-69
2023/07/04 02:36:27;;;;;;;;;;;18.40;99.90;;;;;;5075989;28;20001;-67
2023/07/04 02:38:53;;;;;;;;;;;18.40;99.90;;;;;;5075962;28;20341;-68
2023/07/04 02:41:20;;;;;;;;;;;18.30;99.90;;;;;;5076056;28;20340;-67
2023/07/04 02:43:47;;;;;;;;;;;18.30;99.90;;;;;;5075885;28;20031;-69
2023/07/04 02:46:13;;;;;;;;;;;18.30;99.90;;;;;;5075772;28;20066;-70
2023/07/04 02:48:41;;;;;;;;;;;18.30;99.90;;;;;;5075958;28;20001;-69
2023/07/04 02:51:08;;;;;;;;;;;18.30;99.90;;;;;;5075665;28;20009;-69
2023/07/04 02:53:36;;;;;;;;;;;18.30;99.90;;;;;;5075666;28;20120;-69
2023/07/04 02:56:05;;;;;;;;;;;18.30;99.90;;;;;;5075618;28;20008;-69
2023/07/04 02:58:32;;;;;;;;;;;18.30;99.90;;;;;;5075361;28;20460;-69
2023/07/04 03:00:59;;;;;;;;;;;18.30;99.90;;;;;;5075186;28;20430;-69
2023/07/04 03:03:27;;;;;;;;;;;18.30;99.90;;;;;;5075049;28;20001;-68
2023/07/04 03:05:57;;;;;;;;;;;18.20;99.90;;;;;;5075329;28;20055;-69
2023/07/04 03:08:23;;;;;;;;;;;18.20;99.90;;;;;;5075517;28;20001;-68
2023/07/04 03:10:54;;;;;;;;;;;18.20;99.90;;;;;;5075643;28;20001;-69
2023/07/04 03:13:20;;;;;;;;;;;18.20;99.90;;;;;;5075170;28;20020;-69
2023/07/04 03:15:47;;;;;;;;;;;18.20;99.90;;;;;;5075245;28;20092;-69
2023/07/04 03:18:14;;;;;;;;;;;18.30;99.90;;;;;;5075557;28;20012;-69
2023/07/04 03:20:40;;;;;;;;;;;18.30;99.90;;;;;;5075543;28;20045;-68
2023/07/04 03:23:07;;;;;;;;;;;18.30;99.90;;;;;;5075321;28;20001;-68
2023/07/04 03:25:34;;;;;;;;;;;18.20;99.90;;;;;;5075259;28;20100;-68
2023/07/04 03:28:02;;;;;;;;;;;18.20;99.90;;;;;;5075440;28;20148;-68
2023/07/04 03:30:28;;;;;;;;;;;18.20;99.90;;;;;;5075495;28;20001;-69
2023/07/04 03:32:55;;;;;;;;;;;18.10;99.90;;;;;;5075423;28;20024;-69
2023/07/04 03:35:21;;;;;;;;;;;18.10;99.90;;;;;;5075244;28;20027;-69
2023/07/04 03:37:48;;;;;;;;;;;18.10;99.90;;;;;;5074878;28;20043;-69
2023/07/04 03:40:15;;;;;;;;;;;18.10;99.90;;;;;;5075302;28;20333;-69
2023/07/04 03:42:42;;;;;;;;;;;18.00;99.90;;;;;;5074919;28;20396;-68
2023/07/04 03:45:10;;;;;;;;;;;18.00;99.90;;;;;;5075319;28;20337;-68
2023/07/04 03:47:37;;;;;;;;;;;18.00;99.90;;;;;;5074993;28;20001;-69
2023/07/04 03:50:04;;;;;;;;;;;18.00;99.90;;;;;;5075052;28;20099;-68
2023/07/04 03:52:30;;;;;;;;;;;17.90;99.90;;;;;;5074899;28;20002;-68
2023/07/04 03:54:57;;;;;;;;;;;17.80;99.90;;;;;;5075174;28;20005;-69
2023/07/04 03:57:24;;;;;;;;;;;17.80;99.90;;;;;;5075130;28;20005;-69
2023/07/04 03:59:50;;;;;;;;;;;17.80;99.90;;;;;;5074764;28;20008;-68
2023/07/04 04:02:18;;;;;;;;;;;17.80;99.90;;;;;;5074990;28;20011;-68
2023/07/04 04:04:46;;;;;;;;;;;17.80;99.90;;;;;;5074780;28;20040;-68
2023/07/04 04:07:13;;;;;;;;;;;17.80;99.90;;;;;;5075078;28;20008;-69
2023/07/04 04:09:39;;;;;;;;;;;17.70;99.90;;;;;;5074965;28;20055;-69
2023/07/04 04:12:07;;;;;;;;;;;17.70;99.90;;;;;;5074624;28;20001;-68
2023/07/04 04:14:35;;;;;;;;;;;17.80;99.90;;;;;;5078252;28;20028;-69
2023/07/04 04:17:02;;;;;;;;;;;17.80;99.90;;;;;;5078443;28;20001;-69
2023/07/04 04:19:30;;;;;;;;;;;17.80;99.90;;;;;;5078873;28;20027;-67
2023/07/04 04:22:00;;;;;;;;;;;17.80;99.90;;;;;;5078986;28;20539;-68
2023/07/04 04:24:26;;;;;;;;;;;17.70;99.90;;;;;;5079583;28;20012;-68
2023/07/04 04:26:53;;;;;;;;;;;17.80;99.90;;;;;;5078941;28;20017;-68
2023/07/04 04:29:22;;;;;;;;;;;17.80;99.90;;;;;;5079246;28;20012;-68
2023/07/04 04:31:51;;;;;;;;;;;17.80;99.90;;;;;;5079228;28;20099;-69
2023/07/04 04:34:18;;;;;;;;;;;17.80;99.90;;;;;;5078258;28;20027;-68
2023/07/04 04:36:46;;;;;;;;;;;17.80;99.90;;;;;;5078587;28;20021;-70
2023/07/04 04:39:13;;;;;;;;;;;17.80;99.90;;;;;;5079268;28;20174;-69
2023/07/04 04:41:40;;;;;;;;;;;17.80;99.90;;;;;;5078667;28;20005;-70
2023/07/04 04:44:08;;;;;;;;;;;17.70;99.90;;;;;;5078590;28;20091;-69
2023/07/04 04:46:35;;;;;;;;;;;17.70;99.90;;;;;;5079059;28;20056;-70
2023/07/04 04:49:03;;;;;;;;;;;17.70;99.90;;;;;;5078866;28;20001;-69
2023/07/04 04:51:30;;;;;;;;;;;17.70;99.90;;;;;;5078610;28;20005;-69
2023/07/04 04:53:58;;;;;;;;;;;17.70;99.90;;;;;;5077903;28;20063;-69
2023/07/04 04:56:25;;;;;;;;;;;17.80;99.90;;;;;;5078336;28;20016;-69
2023/07/04 04:58:53;;;;;;;;;;;17.80;99.90;;;;;;5078654;28;20100;-70
2023/07/04 05:01:22;;;;;;;;;;;17.90;99.90;;;;;;5078710;28;20012;-69
2023/07/04 05:03:50;;;;;;;;;;;17.90;99.90;;;;;;5078166;28;20031;-69
2023/07/04 05:06:17;;;;;;;;;;;17.90;99.90;;;;;;5077933;28;20011;-68
2023/07/04 05:08:44;;;;;;;;;;;17.90;99.90;;;;;;5078446;28;20092;-68
2023/07/04 05:11:15;;;;;;;;;;;18.00;99.90;;;;;;5078584;28;20001;-68
2023/07/04 05:13:42;;;;;;;;;;;17.90;99.90;;;;;;5078542;28;20024;-68
2023/07/04 05:16:11;;;;;;;;;;;17.90;99.90;;;;;;5077878;28;20448;-69
2023/07/04 05:18:38;;;;;;;;;;;17.90;99.90;;;;;;5078601;28;20092;-69
2023/07/04 05:21:06;;;;;;;;;;;17.90;99.90;;;;;;5078616;28;20048;-69
2023/07/04 05:23:34;;;;;;;;;;;17.70;99.90;;;;;;5078725;28;20088;-69
2023/07/04 05:26:01;;;;;;;;;;;17.70;99.90;;;;;;5077944;28;20400;-67
2023/07/04 05:28:29;;;;;;;;;;;17.70;99.90;;;;;;5078819;28;20028;-69
2023/07/04 05:30:59;;;;;;;;;;;17.60;99.90;;;;;;5078857;28;20069;-69
2023/07/04 05:33:29;;;;;;;;;;;17.70;99.90;;;;;;5078367;28;20341;-69
2023/07/04 05:36:02;;;;;;;;;;;17.70;99.90;;;;;;5077927;28;20000;-68
2023/07/04 05:38:29;;;;;;;;;;;17.70;99.90;;;;;;5077585;28;20021;-68
2023/07/04 05:40:55;;;;;;;;;;;17.70;99.90;;;;;;5077534;28;20008;-68
2023/07/04 05:43:22;;;;;;;;;;;17.70;99.90;;;;;;5076938;28;20001;-68
2023/07/04 05:45:50;;;;;;;;;;;17.80;99.90;;;;;;5076834;28;20065;-68
2023/07/04 05:48:17;;;;;;;;;;;17.80;99.90;;;;;;5077596;28;20104;-68
2023/07/04 05:50:50;;;;;;;;;;;17.80;99.90;;;;;;5077162;28;20095;-69
2023/07/04 05:53:16;;;;;;;;;;;17.80;99.90;;;;;;5077281;28;20007;-69
2023/07/04 05:55:43;;;;;;;;;;;17.70;99.90;;;;;;5077626;28;20323;-69
2023/07/04 05:58:10;;;;;;;;;;;17.80;99.90;;;;;;5077173;28;20001;-70
2023/07/04 06:00:36;;;;;;;;;;;17.80;99.90;;;;;;5077178;28;20011;-69
2023/07/04 06:03:04;;;;;;;;;;;17.60;99.90;;;;;;5077116;28;20184;-69
2023/07/04 06:05:31;;;;;;;;;;;17.50;99.90;;;;;;5076904;28;20001;-68
2023/07/04 06:07:57;;;;;;;;;;;17.40;99.90;;;;;;5076939;28;20001;-69
2023/07/04 06:10:24;;;;;;;;;;;17.40;99.90;;;;;;5076993;28;20001;-69
2023/07/04 06:12:51;;;;;;;;;;;17.40;99.90;;;;;;5077527;28;20001;-68
2023/07/04 06:15:17;;;;;;;;;;;17.30;99.90;;;;;;5077482;28;20017;-68
2023/07/04 06:17:44;;;;;;;;;;;17.30;99.90;;;;;;5077405;28;20092;-70
2023/07/04 06:20:13;;;;;;;;;;;17.30;99.90;;;;;;5076506;28;20001;-68
2023/07/04 06:22:40;;;;;;;;;;;17.40;99.90;;;;;;5076957;28;20108;-69
2023/07/04 06:25:07;;;;;;;;;;;17.50;99.90;;;;;;5076462;28;20001;-70
2023/07/04 06:27:34;;;;;;;;;;;17.60;99.90;;;;;;5077107;28;20062;-68
2023/07/04 06:30:01;;;;;;;;;;;17.70;99.90;;;;;;5076134;28;20084;-68
2023/07/04 06:32:27;;;;;;;;;;;17.60;99.90;;;;;;5076591;28;20061;-69
2023/07/04 06:34:54;;;;;;;;;;;17.50;99.90;;;;;;5076737;28;20143;-70
2023/07/04 06:37:22;;;;;;;;;;;17.40;99.90;;;;;;5076026;28;20085;-70
2023/07/04 06:39:49;;;;;;;;;;;17.40;99.90;;;;;;5076732;28;20000;-69
2023/07/04 06:42:15;;;;;;;;;;;17.40;99.90;;;;;;5076958;28;20001;-69
2023/07/04 06:44:44;;;;;;;;;;;17.40;99.90;;;;;;5076296;28;20005;-69
2023/07/04 06:47:11;;;;;;;;;;;17.40;99.90;;;;;;5076919;28;20001;-68
2023/07/04 06:49:37;;;;;;;;;;;17.50;99.90;;;;;;5076679;28;20011;-69
2023/07/04 06:52:07;;;;;;;;;;;17.50;99.90;;;;;;5076629;28;20080;-68
2023/07/04 06:54:35;;;;;;;;;;;17.40;99.90;;;;;;5076243;28;20334;-69
2023/07/04 06:57:03;;;;;;;;;;;17.40;99.90;;;;;;5076611;28;20091;-69
2023/07/04 06:59:30;;;;;;;;;;;17.50;99.90;;;;;;5076009;28;20101;-69
2023/07/04 07:01:56;;;;;;;;;;;17.60;99.90;;;;;;5076074;28;20011;-70
2023/07/04 07:04:23;;;;;;;;;;;17.60;99.90;;;;;;5076230;28;20104;-69
2023/07/04 07:06:50;;;;;;;;;;;17.50;99.90;;;;;;5075564;28;20084;-69
2023/07/04 07:09:18;;;;;;;;;;;17.60;99.90;;;;;;5075613;28;20013;-68
2023/07/04 07:11:46;;;;;;;;;;;17.70;99.90;;;;;;5076203;28;20001;-69
2023/07/04 07:14:13;;;;;;;;;;;17.80;99.90;;;;;;5075764;28;20112;-69
2023/07/04 07:16:40;;;;;;;;;;;17.80;99.90;;;;;;5076106;28;20100;-69
2023/07/04 07:19:06;;;;;;;;;;;17.90;99.90;;;;;;5076072;28;20088;-69
2023/07/04 07:21:33;;;;;;;;;;;18.10;99.90;;;;;;5075768;28;20021;-70
2023/07/04 07:24:01;;;;;;;;;;;18.10;99.90;;;;;;5076725;28;20092;-69
2023/07/04 07:26:27;;;;;;;;;;;18.20;99.90;;;;;;5076370;28;20011;-70
2023/07/04 07:28:55;;;;;;;;;;;18.30;99.90;;;;;;5076055;28;20040;-68
2023/07/04 07:31:23;;;;;;;;;;;18.30;99.90;;;;;;5075800;28;20341;-69
2023/07/04 07:33:50;;;;;;;;;;;18.40;99.90;;;;;;5075952;28;20001;-69
2023/07/04 07:36:21;;;;;;;;;;;18.30;99.90;;;;;;5075905;28;20012;-69
2023/07/04 07:38:48;;;;;;;;;;;18.30;99.90;;;;;;5075739;28;20007;-69
2023/07/04 07:41:14;;;;;;;;;;;18.30;99.90;;;;;;5075176;28;20023;-69
2023/07/04 07:43:42;;;;;;;;;;;18.40;99.90;;;;;;5076054;28;20011;-69
2023/07/04 07:46:10;;;;;;;;;;;18.30;99.90;;;;;;5075360;28;20393;-68
2023/07/04 07:48:37;;;;;;;;;;;18.20;99.90;;;;;;5075685;28;20092;-68
2023/07/04 07:51:05;;;;;;;;;;;18.20;99.90;;;;;;5075395;28;20088;-69
2023/07/04 07:53:31;;;;;;;;;;;18.30;99.90;;;;;;5076434;28;20002;-70
2023/07/04 07:55:58;;;;;;;;;;;18.40;99.90;;;;;;5075697;28;20027;-69
2023/07/04 07:58:25;;;;;;;;;;;18.40;99.90;;;;;;5075412;28;20040;-69
2023/07/04 08:00:51;;;;;;;;;;;18.60;99.90;;;;;;5074878;28;20375;-69
2023/07/04 08:03:19;;;;;;;;;;;18.70;99.90;;;;;;5074573;28;20007;-69
2023/07/04 08:05:46;;;;;;;;;;;18.90;99.90;;;;;;5075031;28;20001;-70
2023/07/04 08:08:13;;;;;;;;;;;18.90;99.90;;;;;;5074914;28;20005;-69
2023/07/04 08:10:41;;;;;;;;;;;18.90;99.90;;;;;;5075299;28;20104;-71
2023/07/04 08:13:08;;;;;;;;;;;19.00;99.90;;;;;;5075554;28;20453;-69
2023/07/04 08:15:34;;;;;;;;;;;18.90;99.90;;;;;;5075326;28;20013;-69
2023/07/04 08:18:03;;;;;;;;;;;19.00;99.90;;;;;;5075761;28;20001;-69
2023/07/04 08:20:31;;;;;;;;;;;19.10;99.90;;;;;;5075692;28;20001;-70
2023/07/04 08:22:58;;;;;;;;;;;19.10;99.90;;;;;;5075450;28;20390;-68
2023/07/04 08:25:24;;;;;;;;;;;19.10;99.90;;;;;;5074695;28;20414;-69
2023/07/04 08:27:51;;;;;;;;;;;19.30;99.90;;;;;;5075044;28;20071;-69
2023/07/04 08:30:18;;;;;;;;;;;19.20;99.90;;;;;;5075952;28;20013;-68
2023/07/04 08:32:44;;;;;;;;;;;19.10;99.90;;;;;;5075468;28;20473;-70
2023/07/04 08:35:11;;;;;;;;;;;19.10;99.90;;;;;;5074855;28;20466;-70
2023/07/04 08:37:39;;;;;;;;;;;19.10;99.90;;;;;;5074700;28;20021;-70
2023/07/04 08:40:06;;;;;;;;;;;19.20;99.90;;;;;;5075618;28;20002;-69
2023/07/04 08:42:35;;;;;;;;;;;19.20;99.90;;;;;;5075371;28;20005;-69
2023/07/04 08:45:02;;;;;;;;;;;19.10;99.90;;;;;;5074618;28;20461;-69
2023/07/04 08:47:30;;;;;;;;;;;19.10;99.90;;;;;;5075114;28;20001;-69
2023/07/04 08:49:59;;;;;;;;;;;19.20;99.90;;;;;;5075174;28;20417;-69
2023/07/04 08:52:31;;;;;;;;;;;19.30;99.90;;;;;;5075584;28;20117;-70
2023/07/04 08:54:59;;;;;;;;;;;19.20;99.90;;;;;;5075312;28;20117;-69
2023/07/04 08:57:29;;;;;;;;;;;19.30;99.90;;;;;;5075512;28;20001;-68
2023/07/04 08:59:58;;;;;;;;;;;19.30;99.90;;;;;;5075384;28;20418;-69
2023/07/04 09:02:32;;;;;;;;;;;19.50;99.90;;;;;;5079509;28;20095;-69
2023/07/04 09:05:06;;;;;;;;;;;19.40;99.90;;;;;;5079048;28;20019;-70
2023/07/04 09:07:37;;;;;;;;;;;19.30;99.90;;;;;;5078789;28;19997;-69
2023/07/04 09:10:15;;;;;;;;;;;19.20;99.90;;;;;;5079068;28;20337;-70
2023/07/04 09:12:41;;;;;;;;;;;19.10;99.90;;;;;;5079053;28;20075;-69
2023/07/04 09:15:13;;;;;;;;;;;19.20;99.90;;;;;;5079558;28;20039;-68
2023/07/04 09:17:46;;;;;;;;;;;19.30;99.90;;;;;;5078573;28;20008;-71
2023/07/04 09:20:13;;;;;;;;;;;19.50;99.90;;;;;;5078761;28;20007;-69
2023/07/04 09:22:39;;;;;;;;;;;19.70;99.90;;;;;;5078188;28;20001;-68
2023/07/04 09:25:07;;;;;;;;;;;19.90;99.90;;;;;;5078701;28;20420;-70
2023/07/04 09:27:35;;;;;;;;;;;19.90;99.90;;;;;;5078143;28;20052;-69
2023/07/04 09:30:03;;;;;;;;;;;19.90;99.90;;;;;;5077672;28;20001;-69
2023/07/04 09:32:30;;;;;;;;;;;19.80;99.90;;;;;;5079082;28;20073;-69
2023/07/04 09:35:00;;;;;;;;;;;19.80;99.90;;;;;;5078569;28;20107;-69
2023/07/04 09:37:27;;;;;;;;;;;19.90;99.90;;;;;;5077700;28;20032;-69
2023/07/04 09:39:57;;;;;;;;;;;20.00;99.90;;;;;;5078193;28;20015;-69
2023/07/04 09:42:25;;;;;;;;;;;19.90;99.90;;;;;;5078208;28;20096;-69
2023/07/04 09:44:54;;;;;;;;;;;19.80;99.90;;;;;;5077741;28;20083;-70
2023/07/04 09:47:22;;;;;;;;;;;19.80;99.90;;;;;;5079298;28;20001;-69
2023/07/04 09:50:07;;;;;;;;;;;19.70;99.90;;;;;;5078624;28;20016;-70
2023/07/04 09:52:34;;;;;;;;;;;19.60;99.90;;;;;;5078496;28;20009;-69
2023/07/04 09:55:08;;;;;;;;;;;19.60;99.90;;;;;;5078348;28;20017;-71
2023/07/04 09:57:35;;;;;;;;;;;19.80;99.90;;;;;;5077616;28;20019;-70
2023/07/04 10:00:16;;;;;;;;;;;19.90;99.90;;;;;;5077749;28;20084;-69
2023/07/04 10:02:43;;;;;;;;;;;20.10;99.90;;;;;;5077528;28;20040;-69
2023/07/04 10:05:10;;;;;;;;;;;20.10;99.90;;;;;;5077392;28;20037;-69
2023/07/04 10:07:39;;;;;;;;;;;20.20;99.90;;;;;;5077314;28;20087;-70
2023/07/04 10:10:07;;;;;;;;;;;20.40;99.90;;;;;;5077935;28;20048;-69
2023/07/04 10:12:41;;;;;;;;;;;20.40;99.90;;;;;;5076819;28;20001;-69
2023/07/04 10:15:08;;;;;;;;;;;20.50;99.90;;;;;;5077942;28;20013;-70
2023/07/04 10:17:39;;;;;;;;;;;20.50;99.90;;;;;;5077373;28;20015;-68
2023/07/04 10:20:13;;;;;;;;;;;20.60;99.90;;;;;;5078165;28;20008;-69
2023/07/04 10:22:41;;;;;;;;;;;20.50;99.10;;;;;;5077164;28;20051;-69
2023/07/04 10:25:10;;;;;;;;;;;20.60;98.90;;;;;;5077568;28;20001;-69
2023/07/04 10:27:39;;;;;;;;;;;20.50;97.30;;;;;;5077257;28;20001;-69
2023/07/04 10:30:07;;;;;;;;;;;20.30;96.40;;;;;;5076883;28;20001;-69
2023/07/04 10:32:39;;;;;;;;;;;20.30;96.70;;;;;;5077163;28;20056;-69
2023/07/04 10:35:06;;;;;;;;;;;20.30;94.10;;;;;;5076421;28;20017;-68
2023/07/04 10:37:34;;;;;;;;;;;20.40;95.00;;;;;;5075966;28;20025;-68
2023/07/04 10:40:02;;;;;;;;;;;20.60;94.10;;;;;;5076262;28;20096;-69
2023/07/04 10:42:32;;;;;;;;;;;20.60;93.60;;;;;;5076282;28;20164;-68
2023/07/04 10:44:58;;;;;;;;;;;20.70;93.80;;;;;;5075678;28;20002;-68
2023/07/04 10:47:27;;;;;;;;;;;20.80;94.00;;;;;;5076356;28;20001;-69
2023/07/04 10:49:57;;;;;;;;;;;20.60;93.50;;;;;;5075497;28;20095;-68
2023/07/04 10:52:28;;;;;;;;;;;20.50;94.70;;;;;;5076137;28;20092;-68
2023/07/04 10:54:55;;;;;;;;;;;20.60;95.00;;;;;;5076183;28;20015;-67
2023/07/04 10:57:24;;;;;;;;;;;20.70;95.20;;;;;;5076342;28;20084;-69
2023/07/04 10:59:53;;;;;;;;;;;20.60;94.80;;;;;;5075704;28;20011;-69
2023/07/04 11:02:25;;;;;;;;;;;20.60;96.10;;;;;;5075516;28;20001;-69
2023/07/04 11:04:55;;;;;;;;;;;20.70;96.30;;;;;;5075632;28;20007;-70
2023/07/04 11:07:25;;;;;;;;;;;20.60;96.10;;;;;;5075821;28;20088;-68
2023/07/04 11:09:54;;;;;;;;;;;20.60;97.00;;;;;;5075693;28;20429;-68
2023/07/04 11:12:24;;;;;;;;;;;20.50;97.00;;;;;;5075737;28;20041;-69
2023/07/04 11:14:50;;;;;;;;;;;20.30;97.50;;;;;;5075118;28;20001;-69
2023/07/04 11:17:18;;;;;;;;;;;20.30;97.60;;;;;;5075341;28;20001;-68
2023/07/04 11:19:56;;;;;;;;;;;20.20;98.20;;;;;;5075828;28;20005;-69
2023/07/04 11:22:37;;;;;;;;;;;20.30;97.90;;;;;;5075626;28;20005;-69
2023/07/04 11:25:19;;;;;;;;;;;20.40;97.50;;;;;;5075783;28;19997;-69
2023/07/04 11:28:06;;;;;;;;;;;20.30;98.40;;;;;;5075117;28;20441;-69
2023/07/04 11:30:34;;;;;;;;;;;20.30;98.70;;;;;;5075243;28;20114;-69
2023/07/04 11:33:01;;;;;;;;;;;20.20;99.20;;;;;;5075256;28;20001;-69
2023/07/04 11:35:32;;;;;;;;;;;20.10;99.90;;;;;;5075646;28;20412;-68
2023/07/04 11:38:04;;;;;;;;;;;20.10;99.90;;;;;;5075479;28;20021;-69
2023/07/04 11:40:32;;;;;;;;;;;20.10;99.90;;;;;;5075532;28;20024;-70
2023/07/04 11:43:00;;;;;;;;;;;20.00;99.90;;;;;;5075691;28;20001;-68
2023/07/04 11:45:27;;;;;;;;;;;19.90;99.90;;;;;;5075179;28;20012;-69
2023/07/04 11:47:59;;;;;;;;;;;19.90;99.90;;;;;;5075437;28;20023;-68
2023/07/04 11:50:30;;;;;;;;;;;19.90;99.70;;;;;;5075131;28;20001;-69
2023/07/04 11:52:58;;;;;;;;;;;19.90;99.80;;;;;;5075800;28;20336;-69
2023/07/04 11:55:29;;;;;;;;;;;19.90;98.90;;;;;;5075846;28;20111;-69
2023/07/04 11:58:01;;;;;;;;;;;20.40;98.80;;;;;;5075526;28;20001;-70
2023/07/04 12:00:46;;;;;;;;;;;20.70;98.30;;;;;;5075637;28;20024;-70
2023/07/04 12:03:31;;;;;;;;;;;21.00;97.70;;;;;;5075788;28;20371;-69
2023/07/04 12:06:01;;;;;;;;;;;20.80;96.90;;;;;;5075047;28;20088;-69
2023/07/04 12:08:33;;;;;;;;;;;21.00;97.70;;;;;;5075080;28;20001;-68
2023/07/04 12:11:02;;;;;;;;;;;21.40;97.80;;;;;;5075195;28;20092;-69
2023/07/04 12:13:30;;;;;;;;;;;21.80;97.20;;;;;;5075093;28;20100;-69
2023/07/04 12:15:57;;;;;;;;;;;21.70;95.20;;;;;;5074564;28;20020;-69
2023/07/04 12:18:25;;;;;;;;;;;21.90;94.80;;;;;;5075334;28;20001;-68
2023/07/04 12:20:52;;;;;;;;;;;21.50;94.70;;;;;;5075368;28;20414;-68
2023/07/04 12:23:21;;;;;;;;;;;21.60;95.50;;;;;;5074705;28;20108;-69
2023/07/04 12:25:49;;;;;;;;;;;21.40;95.60;;;;;;5075053;28;20008;-68
2023/07/04 12:28:17;;;;;;;;;;;21.20;96.20;;;;;;5074951;28;20005;-69
2023/07/04 12:30:48;;;;;;;;;;;21.50;95.30;;;;;;5075238;28;20001;-69
2023/07/04 12:33:21;;;;;;;;;;;22.30;95.10;;;;;;5074624;28;19998;-69
2023/07/04 12:35:55;;;;;;;;;;;23.10;93.30;;;;;;5077904;28;20021;-69
2023/07/04 12:38:23;;;;;;;;;;;23.80;91.70;;;;;;5078503;28;20021;-68
2023/07/04 12:40:51;;;;;;;;;;;23.10;88.30;;;;;;5079573;28;20005;-68
2023/07/04 12:43:18;;;;;;;;;;;22.50;88.10;;;;;;5079340;28;20001;-68
2023/07/04 12:45:45;;;;;;;;;;;22.20;89.50;;;;;;5079782;28;20380;-68
2023/07/04 12:48:13;;;;;;;;;;;22.70;89.90;;;;;;5079647;28;20455;-68
2023/07/04 12:50:40;;;;;;;;;;;22.50;88.70;;;;;;5079364;28;20001;-68
2023/07/04 12:53:09;;;;;;;;;;;22.40;89.70;;;;;;5078608;28;20007;-68
2023/07/04 12:55:37;;;;;;;;;;;23.40;89.10;;;;;;5078834;28;20001;-69
2023/07/04 12:58:05;;;;;;;;;;;23.50;82.70;;;;;;5078420;28;20140;-69
2023/07/04 13:00:37;;;;;;;;;;;23.10;82.50;;;;;;5078456;28;20012;-69
2023/07/04 13:03:05;;;;;;;;;;;23.30;82.60;;;;;;5078077;28;20341;-70
2023/07/04 13:05:36;;;;;;;;;;;24.10;80.20;;;;;;5078257;28;20028;-69
2023/07/04 13:08:09;;;;;;;;;;;24.40;70.50;;;;;;5078012;28;20424;-69
2023/07/04 13:10:37;;;;;;;;;;;23.80;72.80;;;;;;5077971;28;19997;-68
2023/07/04 13:13:05;;;;;;;;;;;23.50;72.70;;;;;;5077318;28;20008;-68
2023/07/04 13:15:33;;;;;;;;;;;23.60;70.10;;;;;;5077928;28;20115;-68
2023/07/04 13:18:03;;;;;;;;;;;23.50;69.10;;;;;;5077379;28;20040;-69
2023/07/04 13:20:30;;;;;;;;;;;24.10;66.30;;;;;;5077364;28;20059;-68
2023/07/04 13:23:12;;;;;;;;;;;24.30;66.20;;;;;;5077177;28;20005;-69
2023/07/04 13:25:41;;;;;;;;;;;24.00;61.10;;;;;;5077515;28;20092;-69
2023/07/04 13:28:10;;;;;;;;;;;23.70;60.60;;;;;;5077534;28;20091;-69
2023/07/04 13:30:36;;;;;;;;;;;24.10;61.80;;;;;;5077546;28;20108;-67
2023/07/04 13:33:04;;;;;;;;;;;24.10;59.10;;;;;;5077863;28;20517;-69
2023/07/04 13:35:35;;;;;;;;;;;24.20;59.20;;;;;;5076870;28;20418;-68
2023/07/04 13:38:02;;;;;;;;;;;24.70;58.70;;;;;;5077113;28;20489;-71
2023/07/04 13:40:29;;;;;;;;;;;25.20;55.80;;;;;;5077739;28;20005;-70
2023/07/04 13:43:05;;;;;;;;;;;24.30;56.90;;;;;;5077757;28;20062;-69
2023/07/04 13:45:32;;;;;;;;;;;23.70;58.60;;;;;;5077683;28;20001;-69
2023/07/04 13:47:58;;;;;;;;;;;23.20;58.80;;;;;;5078056;28;20088;-69
2023/07/04 13:50:25;;;;;;;;;;;23.20;59.80;;;;;;5077421;28;20095;-69
2023/07/04 13:52:52;;;;;;;;;;;23.50;59.80;;;;;;5077207;28;20001;-68
2023/07/04 13:55:19;;;;;;;;;;;24.30;57.10;;;;;;5077608;28;20304;-68
2023/07/04 13:57:45;;;;;;;;;;;24.40;56.10;;;;;;5077169;28;20412;-68
2023/07/04 14:00:14;;;;;;;;;;;24.40;57.90;;;;;;5077030;28;20454;-69
2023/07/04 14:02:41;;;;;;;;;;;24.70;55.10;;;;;;5076747;28;20001;-69
2023/07/04 14:05:08;;;;;;;;;;;25.10;54.90;;;;;;5076537;28;20096;-69
2023/07/04 14:07:34;;;;;;;;;;;24.90;53.60;;;;;;5076869;28;20001;-69
2023/07/04 14:10:01;;;;;;;;;;;25.00;53.70;;;;;;5076344;28;20497;-68
2023/07/04 14:12:28;;;;;;;;;;;24.90;53.40;;;;;;5076601;28;20545;-69
2023/07/04 14:14:54;;;;;;;;;;;25.20;53.30;;;;;;5076453;28;20001;-69
2023/07/04 14:17:22;;;;;;;;;;;25.40;52.50;;;;;;5076356;28;20013;-68
2023/07/04 14:19:49;;;;;;;;;;;25.40;51.80;;;;;;5076486;28;20120;-68
2023/07/04 14:22:15;;;;;;;;;;;25.50;52.70;;;;;;5076233;28;20436;-67